Portada
METAR-TAF:

METAR-TAF

Aeroports :

Winter Haven's Gilbert Airport

Winter Haven, Florida, Estats Units d'Amèrica

latitud: 28-03-38N, longitud: 081-45-27W, altitud: 44 m

Observació

L'informe es va fer fa 16 minuts, a les 05:53 UTC
Vent 6 kt del Oest/Nord-Oest
Temperatura 26°C
Humitat 84%
Pressió 1015 hPa
Visibilitat: 16.1 km
Cel clar

METAR: KGIF 160553Z AUTO 30006KT 10SM CLR 26/23 A2996 RMK AO2 SLP143 T02560233 10278 20256 53001

Hora: 02:09 (06:09 UTC)


TAF: manca

Observacions i pronòstics meteorològics de més de 4000 aeroports (METAR i TAF).

Les estacions disponibles són els punts grocs i vermells al mapa.

Posi el ratolí al punt desitjat per veure el nom de l'estació.

Feu clic per veure les observacions i els pronòstics meteorològics.

Per canviar el mapa: feu clic els botons verds amb una creu de color negre per apropar; al botó verd amb un guió per allunyar la imatge; o en les fletxes verdes per a mapes adjacents.


METAR-TAF: